Time;durP1;ratioP1;P1;durP2;ratioP2;P2;SDS_P1;SDS_P2;PMS_P1;PMS_P2;Temp;Humidity;BMP_temperature;BMP_pressure;BME280_temperature;BME280_humidity;BME280_pressure;Samples;Min_cycle;Max_cycle;Signal;HPM_P1;HPM_P2
2022/07/12 00:02:09;;;;;;;6.57;3.13;;;;;;;;;;5033557;28;20049;-82
2022/07/12 00:04:36;;;;;;;8.52;3.40;;;;;;;;;;5031285;28;20038;-82
2022/07/12 00:07:03;;;;;;;8.45;3.70;;;;;;;;;;5033971;28;20073;-82
2022/07/12 00:09:31;;;;;;;8.63;3.00;;;;;;;;;;5031858;28;20049;-82
2022/07/12 00:11:58;;;;;;;11.00;3.47;;;;;;;;;;5031554;28;20084;-83
2022/07/12 00:14:25;;;;;;;10.98;3.67;;;;;;;;;;5032739;28;20077;-82
2022/07/12 00:16:53;;;;;;;7.57;3.10;;;;;;;;;;5032666;28;20087;-82
2022/07/12 00:19:20;;;;;;;5.05;2.70;;;;;;;;;;5033428;28;20132;-82
2022/07/12 00:21:47;;;;;;;5.72;2.70;;;;;;;;;;5031523;28;20469;-83
2022/07/12 00:24:15;;;;;;;10.15;2.90;;;;;;;;;;5032919;28;20120;-82
2022/07/12 00:26:42;;;;;;;9.38;2.83;;;;;;;;;;5031440;28;20077;-82
2022/07/12 00:29:09;;;;;;;6.70;3.13;;;;;;;;;;5032063;28;20080;-82
2022/07/12 00:31:36;;;;;;;9.95;2.72;;;;;;;;;;5026092;28;20053;-82
2022/07/12 00:34:04;;;;;;;4.07;2.35;;;;;;;;;;5024047;28;20060;-82
2022/07/12 00:36:31;;;;;;;13.18;2.55;;;;;;;;;;5030550;28;20045;-82
2022/07/12 00:38:58;;;;;;;5.38;2.70;;;;;;;;;;5032373;28;20132;-82
2022/07/12 00:41:26;;;;;;;7.70;2.67;;;;;;;;;;5030500;28;20053;-82
2022/07/12 00:43:53;;;;;;;6.18;2.10;;;;;;;;;;5031377;28;20091;-82
2022/07/12 00:46:22;;;;;;;4.57;2.20;;;;;;;;;;5032243;28;20041;-82
2022/07/12 00:48:50;;;;;;;5.97;2.25;;;;;;;;;;5032615;28;20050;-82
2022/07/12 00:51:18;;;;;;;6.60;2.25;;;;;;;;;;5032193;28;20152;-82
2022/07/12 00:53:45;;;;;;;4.68;1.80;;;;;;;;;;5031050;28;20555;-81
2022/07/12 00:56:13;;;;;;;7.43;2.58;;;;;;;;;;5032299;28;20080;-82
2022/07/12 00:58:41;;;;;;;4.32;1.98;;;;;;;;;;5030993;28;20106;-82
2022/07/12 01:01:09;;;;;;;7.32;3.15;;;;;;;;;;5031022;28;20461;-82
2022/07/12 01:03:37;;;;;;;6.53;2.33;;;;;;;;;;5030586;28;20802;-82
2022/07/12 01:06:04;;;;;;;3.50;1.73;;;;;;;;;;5031614;28;20084;-82
2022/07/12 01:08:32;;;;;;;2.58;1.80;;;;;;;;;;5030761;28;20072;-82
2022/07/12 01:11:00;;;;;;;4.20;1.92;;;;;;;;;;5024901;28;20153;-82
2022/07/12 01:13:27;;;;;;;10.95;1.95;;;;;;;;;;5024199;28;20132;-82
2022/07/12 01:15:55;;;;;;;8.77;2.35;;;;;;;;;;5030086;28;20140;-82
2022/07/12 01:18:22;;;;;;;5.88;2.10;;;;;;;;;;5030720;28;20053;-82
2022/07/12 01:20:50;;;;;;;3.78;1.83;;;;;;;;;;5031570;28;20050;-83
2022/07/12 01:23:17;;;;;;;5.25;1.67;;;;;;;;;;5031733;28;20132;-83
2022/07/12 01:25:44;;;;;;;8.07;2.25;;;;;;;;;;5032066;28;20070;-83
2022/07/12 01:28:12;;;;;;;6.80;1.90;;;;;;;;;;5031749;28;20069;-83
2022/07/12 01:30:41;;;;;;;5.22;2.53;;;;;;;;;;5031437;28;20091;-82
2022/07/12 01:33:08;;;;;;;6.90;2.22;;;;;;;;;;5030784;28;20137;-82
2022/07/12 01:35:36;;;;;;;7.18;2.28;;;;;;;;;;5031667;28;20054;-83
2022/07/12 01:38:03;;;;;;;4.35;2.50;;;;;;;;;;5030163;28;20496;-82
2022/07/12 01:40:30;;;;;;;5.25;1.85;;;;;;;;;;5029752;28;20057;-82
2022/07/12 01:42:58;;;;;;;8.43;2.75;;;;;;;;;;5029765;28;20119;-82
2022/07/12 01:45:25;;;;;;;4.18;2.72;;;;;;;;;;5031000;28;20088;-81
2022/07/12 01:47:52;;;;;;;3.25;2.28;;;;;;;;;;5031657;28;20073;-82
2022/07/12 01:50:20;;;;;;;4.57;2.05;;;;;;;;;;5029976;28;20053;-82
2022/07/12 01:52:47;;;;;;;5.35;2.65;;;;;;;;;;5030971;28;20141;-83
2022/07/12 01:55:15;;;;;;;3.72;1.90;;;;;;;;;;5031355;28;20045;-83
2022/07/12 01:57:43;;;;;;;5.05;2.20;;;;;;;;;;5030216;28;20049;-83
2022/07/12 02:00:11;;;;;;;6.45;2.30;;;;;;;;;;5031171;28;20683;-82
2022/07/12 02:02:39;;;;;;;4.68;2.13;;;;;;;;;;5030171;28;20310;-83
2022/07/12 02:05:07;;;;;;;6.95;2.10;;;;;;;;;;5031143;28;20049;-83
2022/07/12 02:07:34;;;;;;;3.25;2.25;;;;;;;;;;5029749;28;20125;-83
2022/07/12 02:10:02;;;;;;;9.13;2.63;;;;;;;;;;5029615;28;20132;-82
2022/07/12 02:12:29;;;;;;;5.63;2.28;;;;;;;;;;5029651;28;20570;-82
2022/07/12 02:14:56;;;;;;;7.03;1.90;;;;;;;;;;5030851;28;20046;-82
2022/07/12 02:17:24;;;;;;;3.90;2.15;;;;;;;;;;5029940;28;20085;-83
2022/07/12 02:19:51;;;;;;;4.07;2.50;;;;;;;;;;5030660;28;20085;-82
2022/07/12 02:22:18;;;;;;;4.18;2.17;;;;;;;;;;5031052;28;20128;-82
2022/07/12 02:24:46;;;;;;;7.32;2.58;;;;;;;;;;5011212;28;20073;-82
2022/07/12 02:27:13;;;;;;;11.23;3.03;;;;;;;;;;5026729;28;20057;-82
2022/07/12 02:29:42;;;;;;;6.50;2.50;;;;;;;;;;5011501;28;20100;-84
2022/07/12 02:32:09;;;;;;;4.38;2.45;;;;;;;;;;5011033;28;20092;-82
2022/07/12 02:34:36;;;;;;;8.38;3.63;;;;;;;;;;5030094;28;20077;-82
2022/07/12 02:37:04;;;;;;;9.75;3.13;;;;;;;;;;5031867;28;20069;-82
2022/07/12 02:39:31;;;;;;;15.02;4.93;;;;;;;;;;5030638;28;20085;-83
2022/07/12 02:41:58;;;;;;;10.90;3.45;;;;;;;;;;5029466;28;20084;-82
2022/07/12 02:44:25;;;;;;;6.85;2.63;;;;;;;;;;5030615;28;20645;-82
2022/07/12 02:46:53;;;;;;;10.63;2.97;;;;;;;;;;5030757;28;20485;-82
2022/07/12 02:49:20;;;;;;;10.98;3.40;;;;;;;;;;5030639;28;20045;-82
2022/07/12 02:51:47;;;;;;;9.70;3.13;;;;;;;;;;5030602;28;20084;-82
2022/07/12 02:54:14;;;;;;;6.20;2.88;;;;;;;;;;5029501;28;20089;-82
2022/07/12 02:56:42;;;;;;;9.27;2.95;;;;;;;;;;5030987;28;20053;-81
2022/07/12 02:59:09;;;;;;;6.90;2.83;;;;;;;;;;5029608;28;20093;-82
2022/07/12 03:01:36;;;;;;;11.70;3.10;;;;;;;;;;5028772;28;20049;-82
2022/07/12 03:04:04;;;;;;;12.73;3.00;;;;;;;;;;5028626;28;20052;-82
2022/07/12 03:06:31;;;;;;;5.35;3.08;;;;;;;;;;5030555;28;20124;-82
2022/07/12 03:08:58;;;;;;;10.02;2.90;;;;;;;;;;5030304;28;20050;-82
2022/07/12 03:11:26;;;;;;;5.28;2.88;;;;;;;;;;5028258;28;20760;-82
2022/07/12 03:13:53;;;;;;;9.15;3.17;;;;;;;;;;5027964;28;20088;-82
2022/07/12 03:16:20;;;;;;;5.53;2.95;;;;;;;;;;5028092;28;20152;-82
2022/07/12 03:18:48;;;;;;;12.43;3.63;;;;;;;;;;5025385;28;20050;-81
2022/07/12 03:21:16;;;;;;;7.90;3.20;;;;;;;;;;5023019;28;20149;-82
2022/07/12 03:23:44;;;;;;;8.23;3.20;;;;;;;;;;5028404;28;20060;-82
2022/07/12 03:26:11;;;;;;;6.82;3.30;;;;;;;;;;5028782;28;20049;-82
2022/07/12 03:28:38;;;;;;;7.20;2.83;;;;;;;;;;5028610;28;20236;-82
2022/07/12 03:31:05;;;;;;;5.45;2.85;;;;;;;;;;5027982;28;20128;-82
2022/07/12 03:33:33;;;;;;;8.63;3.40;;;;;;;;;;5029589;28;20049;-83
2022/07/12 03:36:01;;;;;;;8.48;3.80;;;;;;;;;;5030511;28;20057;-83
2022/07/12 03:38:28;;;;;;;7.63;3.22;;;;;;;;;;5033325;28;20636;-82
2022/07/12 03:40:55;;;;;;;9.02;3.42;;;;;;;;;;5031615;28;20501;-83
2022/07/12 03:43:23;;;;;;;14.60;4.45;;;;;;;;;;5031647;28;20076;-83
2022/07/12 03:45:50;;;;;;;13.88;3.83;;;;;;;;;;5032984;28;20076;-82
2022/07/12 03:48:17;;;;;;;7.32;3.53;;;;;;;;;;5033765;28;20045;-83
2022/07/12 03:50:45;;;;;;;8.93;3.75;;;;;;;;;;5033237;28;20081;-83
2022/07/12 03:53:13;;;;;;;6.57;3.35;;;;;;;;;;5031841;28;20107;-83
2022/07/12 03:55:40;;;;;;;11.57;3.70;;;;;;;;;;5033554;28;20087;-82
2022/07/12 03:58:07;;;;;;;9.35;3.90;;;;;;;;;;5032845;28;20698;-82
2022/07/12 04:00:35;;;;;;;9.43;3.92;;;;;;;;;;5033224;28;20092;-82
2022/07/12 04:03:02;;;;;;;5.43;2.85;;;;;;;;;;5032993;28;20132;-82
2022/07/12 04:05:29;;;;;;;10.23;3.92;;;;;;;;;;5032018;28;20593;-82
2022/07/12 04:07:57;;;;;;;9.75;3.47;;;;;;;;;;5032960;28;20120;-82
2022/07/12 04:10:24;;;;;;;12.38;3.70;;;;;;;;;;5032536;28;20597;-82
2022/07/12 04:12:51;;;;;;;14.15;4.40;;;;;;;;;;5031607;28;20097;-82
2022/07/12 04:15:20;;;;;;;8.82;3.92;;;;;;;;;;5033380;28;20173;-82
2022/07/12 04:17:47;;;;;;;7.82;4.22;;;;;;;;;;5032879;28;20575;-83
2022/07/12 04:20:17;;;;;;;9.60;4.57;;;;;;;;;;5030849;28;20697;-82
2022/07/12 04:22:44;;;;;;;17.15;4.60;;;;;;;;;;5031079;28;20045;-82
2022/07/12 04:25:11;;;;;;;13.32;4.85;;;;;;;;;;5032729;28;20777;-82
2022/07/12 04:27:39;;;;;;;10.75;4.32;;;;;;;;;;5031808;28;20085;-82
2022/07/12 04:30:07;;;;;;;9.07;4.43;;;;;;;;;;5031466;28;20084;-83
2022/07/12 04:32:34;;;;;;;8.77;4.10;;;;;;;;;;5032189;28;20045;-83
2022/07/12 04:35:01;;;;;;;9.05;4.68;;;;;;;;;;5031722;28;20045;-82
2022/07/12 04:37:29;;;;;;;11.32;4.80;;;;;;;;;;5032739;28;20103;-83
2022/07/12 04:39:56;;;;;;;16.65;5.28;;;;;;;;;;5031654;28;20125;-83
2022/07/12 04:42:23;;;;;;;10.38;4.97;;;;;;;;;;5031181;28;20707;-83
2022/07/12 04:44:50;;;;;;;7.55;5.05;;;;;;;;;;5031138;28;20491;-84
2022/07/12 04:47:18;;;;;;;10.63;5.15;;;;;;;;;;5031769;28;20136;-84
2022/07/12 04:49:45;;;;;;;12.30;4.45;;;;;;;;;;5025209;28;20128;-83
2022/07/12 04:52:12;;;;;;;13.10;5.53;;;;;;;;;;5023302;28;20502;-83
2022/07/12 04:54:40;;;;;;;12.40;4.75;;;;;;;;;;5031162;28;20780;-84
2022/07/12 04:57:07;;;;;;;12.52;5.07;;;;;;;;;;5031497;28;20046;-85
2022/07/12 04:59:34;;;;;;;19.67;6.63;;;;;;;;;;5030308;28;20095;-85
2022/07/12 05:02:02;;;;;;;14.80;4.72;;;;;;;;;;5030518;28;20140;-85
2022/07/12 05:04:33;;;;;;;9.02;4.85;;;;;;;;;;5030775;28;20057;-85
2022/07/12 05:07:01;;;;;;;18.77;4.55;;;;;;;;;;5031960;28;20049;-80
2022/07/12 05:09:28;;;;;;;11.70;4.97;;;;;;;;;;5031615;28;20465;-83
2022/07/12 05:11:56;;;;;;;10.32;5.00;;;;;;;;;;5031823;28;20049;-84
2022/07/12 05:14:23;;;;;;;10.48;5.63;;;;;;;;;;5031757;28;20455;-84
2022/07/12 05:16:50;;;;;;;13.95;5.95;;;;;;;;;;5031684;28;20140;-84
2022/07/12 05:19:18;;;;;;;17.60;5.07;;;;;;;;;;5033415;28;20050;-83
2022/07/12 05:21:46;;;;;;;10.90;4.75;;;;;;;;;;5031535;28;20148;-82
2022/07/12 05:24:13;;;;;;;10.30;4.68;;;;;;;;;;5030917;28;20084;-84
2022/07/12 05:26:41;;;;;;;12.98;5.22;;;;;;;;;;5032330;28;20139;-84
2022/07/12 05:29:08;;;;;;;12.65;5.00;;;;;;;;;;5031785;28;20069;-85
2022/07/12 05:31:35;;;;;;;16.33;4.50;;;;;;;;;;5030027;28;20132;-84
2022/07/12 05:34:03;;;;;;;12.05;4.78;;;;;;;;;;5030225;28;20493;-85
2022/07/12 05:36:30;;;;;;;15.00;4.55;;;;;;;;;;5030439;28;20152;-85
2022/07/12 05:38:58;;;;;;;10.27;4.20;;;;;;;;;;5029620;28;20124;-84
2022/07/12 05:41:25;;;;;;;13.02;4.85;;;;;;;;;;5030634;28;20073;-85
2022/07/12 05:43:52;;;;;;;12.88;4.00;;;;;;;;;;5029353;28;20136;-85
2022/07/12 05:46:19;;;;;;;12.05;4.18;;;;;;;;;;5029853;28;20049;-85
2022/07/12 05:48:48;;;;;;;9.35;3.53;;;;;;;;;;5029585;28;20057;-85
2022/07/12 05:54:04;;;;;;;5.30;2.90;;;;;;;;;;5000242;28;20049;-85
2022/07/12 05:56:31;;;;;;;9.38;3.17;;;;;;;;;;5029905;28;20093;-85
2022/07/12 05:58:59;;;;;;;8.65;3.65;;;;;;;;;;5022685;28;20133;-85
2022/07/12 06:01:26;;;;;;;12.45;3.88;;;;;;;;;;5022301;28;20076;-86
2022/07/12 06:03:53;;;;;;;19.52;3.85;;;;;;;;;;5027504;28;20053;-84
2022/07/12 06:06:20;;;;;;;7.18;3.17;;;;;;;;;;5028992;28;20485;-85
2022/07/12 06:08:48;;;;;;;9.45;3.60;;;;;;;;;;5029100;28;20085;-77
2022/07/12 06:11:15;;;;;;;12.20;3.45;;;;;;;;;;5026488;28;20132;-78
2022/07/12 06:13:42;;;;;;;10.98;3.35;;;;;;;;;;5027514;28;20162;-77
2022/07/12 06:16:11;;;;;;;10.70;3.20;;;;;;;;;;5028407;28;20080;-77
2022/07/12 06:18:38;;;;;;;6.60;2.78;;;;;;;;;;5028161;28;20076;-77
2022/07/12 06:21:06;;;;;;;4.90;2.47;;;;;;;;;;5027704;28;20780;-78
2022/07/12 06:23:33;;;;;;;12.02;2.95;;;;;;;;;;5021286;28;20041;-76
2022/07/12 06:26:00;;;;;;;8.55;2.50;;;;;;;;;;5026826;28;20061;-77
2022/07/12 06:28:28;;;;;;;5.28;2.42;;;;;;;;;;5042706;28;20069;-76
2022/07/12 06:30:55;;;;;;;4.63;2.35;;;;;;;;;;5018564;28;20140;-77
2022/07/12 06:33:22;;;;;;;8.40;2.58;;;;;;;;;;5028159;28;20053;-76
2022/07/12 06:35:50;;;;;;;7.72;2.33;;;;;;;;;;5025914;28;20523;-76
2022/07/12 06:38:17;;;;;;;4.38;1.88;;;;;;;;;;5027002;28;20749;-76
2022/07/12 06:40:44;;;;;;;2.90;1.90;;;;;;;;;;5023314;28;20139;-76
2022/07/12 06:43:12;;;;;;;4.50;1.77;;;;;;;;;;5022769;28;20041;-75
2022/07/12 06:45:40;;;;;;;3.65;1.92;;;;;;;;;;5022539;28;20052;-75
2022/07/12 06:48:08;;;;;;;5.35;2.00;;;;;;;;;;5020613;28;20103;-75
2022/07/12 06:50:35;;;;;;;3.85;1.90;;;;;;;;;;5022070;28;20077;-75
2022/07/12 06:53:02;;;;;;;5.47;1.50;;;;;;;;;;5020508;28;20149;-75
2022/07/12 06:55:30;;;;;;;2.78;1.42;;;;;;;;;;5023232;28;20058;-75
2022/07/12 06:57:57;;;;;;;3.78;1.25;;;;;;;;;;5019643;28;20051;-75
2022/07/12 07:00:25;;;;;;;7.82;1.30;;;;;;;;;;5024112;28;20209;-75
2022/07/12 07:02:52;;;;;;;8.35;1.90;;;;;;;;;;5024581;28;20107;-75
2022/07/12 07:05:20;;;;;;;3.17;1.75;;;;;;;;;;5024698;28;20049;-76
2022/07/12 07:07:47;;;;;;;3.85;1.02;;;;;;;;;;5024536;28;20136;-74
2022/07/12 07:10:15;;;;;;;2.20;1.30;;;;;;;;;;5024626;28;20773;-75
2022/07/12 07:12:42;;;;;;;3.90;1.40;;;;;;;;;;5028428;28;20144;-76
2022/07/12 07:15:10;;;;;;;6.40;1.48;;;;;;;;;;5028357;28;20081;-76
2022/07/12 07:17:37;;;;;;;6.95;1.40;;;;;;;;;;5029429;28;20081;-75
2022/07/12 07:20:05;;;;;;;4.03;1.70;;;;;;;;;;5026395;28;20095;-75
2022/07/12 07:22:32;;;;;;;9.48;1.48;;;;;;;;;;5022321;28;20142;-74
2022/07/12 07:24:59;;;;;;;3.55;1.58;;;;;;;;;;5021487;28;20136;-76
2022/07/12 07:27:27;;;;;;;4.50;1.30;;;;;;;;;;5025775;28;20068;-76
2022/07/12 07:33:07;;;;;;;6.65;1.33;;;;;;;;;;5027377;28;20136;-75
2022/07/12 07:35:35;;;;;;;5.73;1.33;;;;;;;;;;5027053;28;20501;-78
2022/07/12 07:38:02;;;;;;;5.43;1.20;;;;;;;;;;5026223;28;20120;-79
2022/07/12 07:43:59;;;;;;;5.65;1.48;;;;;;;;;;5036489;22;20120;-75
2022/07/12 07:46:27;;;;;;;5.28;1.45;;;;;;;;;;5043350;28;20148;-75
2022/07/12 07:48:54;;;;;;;4.60;1.63;;;;;;;;;;5043501;28;20042;-75
2022/07/12 07:51:21;;;;;;;12.25;1.33;;;;;;;;;;5028795;28;20124;-75
2022/07/12 07:53:49;;;;;;;4.47;1.20;;;;;;;;;;5042596;28;20756;-75
2022/07/12 07:56:16;;;;;;;5.18;1.20;;;;;;;;;;5029234;28;20128;-76
2022/07/12 07:58:43;;;;;;;3.63;0.98;;;;;;;;;;5028560;28;20465;-75
2022/07/12 08:01:11;;;;;;;3.35;1.00;;;;;;;;;;5026826;28;20606;-75
2022/07/12 08:03:39;;;;;;;5.35;1.10;;;;;;;;;;5028719;28;20084;-75
2022/07/12 08:06:06;;;;;;;3.47;0.80;;;;;;;;;;5028846;28;20124;-75
2022/07/12 08:08:33;;;;;;;2.47;1.23;;;;;;;;;;5027438;28;20132;-75
2022/07/12 08:11:20;;;;;;;5.57;1.17;;;;;;;;;;5028823;28;20057;-75
2022/07/12 08:13:48;;;;;;;4.03;1.40;;;;;;;;;;5027001;28;20073;-75
2022/07/12 08:16:15;;;;;;;2.40;1.35;;;;;;;;;;5027043;28;20136;-75
2022/07/12 08:18:43;;;;;;;4.38;1.40;;;;;;;;;;5027642;28;20053;-75
2022/07/12 08:21:10;;;;;;;3.25;1.05;;;;;;;;;;5027719;28;20068;-75
2022/07/12 08:23:38;;;;;;;10.75;1.40;;;;;;;;;;5026730;28;20049;-75
2022/07/12 08:26:05;;;;;;;3.65;1.50;;;;;;;;;;5028128;28;20116;-76
2022/07/12 08:28:32;;;;;;;2.15;0.95;;;;;;;;;;5028196;28;20089;-75
2022/07/12 08:30:59;;;;;;;1.35;1.05;;;;;;;;;;5027514;28;20451;-75
2022/07/12 08:33:27;;;;;;;2.25;1.08;;;;;;;;;;5027911;28;20787;-75
2022/07/12 08:35:54;;;;;;;6.72;1.27;;;;;;;;;;5027053;28;20069;-75
2022/07/12 08:38:21;;;;;;;8.75;1.20;;;;;;;;;;5028284;28;20469;-76
2022/07/12 08:40:49;;;;;;;3.55;0.85;;;;;;;;;;5026809;28;20053;-75
2022/07/12 08:43:16;;;;;;;2.13;1.15;;;;;;;;;;5026130;28;20240;-75
2022/07/12 08:45:43;;;;;;;3.17;1.05;;;;;;;;;;5026150;28;20137;-76
2022/07/12 08:48:11;;;;;;;4.53;1.63;;;;;;;;;;5023860;28;20160;-75
2022/07/12 08:50:38;;;;;;;3.83;1.10;;;;;;;;;;5027836;28;20144;-76
2022/07/12 08:53:12;;;;;;;3.75;1.10;;;;;;;;;;5027208;28;20057;-76
2022/07/12 08:55:40;;;;;;;2.65;1.10;;;;;;;;;;5026260;28;20060;-76
2022/07/12 08:58:16;;;;;;;9.35;1.50;;;;;;;;;;5026226;28;20111;-76
2022/07/12 09:00:43;;;;;;;4.18;1.10;;;;;;;;;;5027063;28;20084;-76
2022/07/12 09:03:16;;;;;;;4.55;1.27;;;;;;;;;;5027662;28;20041;-76
2022/07/12 09:05:53;;;;;;;3.13;1.88;;;;;;;;;;5028721;28;20725;-76
2022/07/12 09:08:33;;;;;;;5.50;1.13;;;;;;;;;;5027694;28;20103;-76
2022/07/12 09:11:01;;;;;;;3.53;1.00;;;;;;;;;;5027518;28;20042;-76
2022/07/12 09:13:47;;;;;;;5.43;1.20;;;;;;;;;;5025432;28;20379;-76
2022/07/12 09:16:19;;;;;;;1.70;0.80;;;;;;;;;;5027327;28;20084;-75
2022/07/12 09:18:47;;;;;;;2.35;0.95;;;;;;;;;;5025885;28;20843;-76
2022/07/12 09:21:43;;;;;;;8.30;1.25;;;;;;;;;;5026661;28;20053;-76
2022/07/12 09:24:11;;;;;;;3.40;1.00;;;;;;;;;;5026111;28;20089;-76
2022/07/12 09:26:39;;;;;;;2.83;1.08;;;;;;;;;;5026993;28;20095;-76
2022/07/12 09:29:11;;;;;;;2.55;1.00;;;;;;;;;;5027377;28;20084;-77
2022/07/12 09:31:39;;;;;;;0.80;0.68;;;;;;;;;;5026723;28;20081;-77
2022/07/12 09:36:56;;;;;;;3.10;0.90;;;;;;;;;;5026233;28;20140;-77
2022/07/12 09:39:25;;;;;;;3.35;0.77;;;;;;;;;;5025142;28;20084;-77
2022/07/12 09:41:54;;;;;;;2.58;0.93;;;;;;;;;;5025800;28;20077;-77
2022/07/12 09:44:22;;;;;;;4.75;0.90;;;;;;;;;;5026178;28;20085;-77
2022/07/12 09:46:49;;;;;;;3.63;0.80;;;;;;;;;;5026129;28;20557;-77
2022/07/12 09:49:17;;;;;;;3.33;1.13;;;;;;;;;;5026599;28;20116;-77
2022/07/12 09:51:51;;;;;;;;;;;;;;;;;;5024937;28;20160;-77
2022/07/12 09:54:23;;;;;;;4.30;0.80;;;;;;;;;;5024755;28;19953;-77
2022/07/12 09:56:59;;;;;;;4.70;0.82;;;;;;;;;;5025792;28;20128;-77
2022/07/12 09:59:29;;;;;;;9.20;1.02;;;;;;;;;;5024479;28;20216;-75
2022/07/12 10:02:03;;;;;;;3.85;1.17;;;;;;;;;;5024888;28;20053;-75
2022/07/12 10:04:31;;;;;;;;;;;;;;;;;;5026224;28;20485;-76
2022/07/12 10:06:58;;;;;;;3.58;1.00;;;;;;;;;;5024166;28;20464;-76
2022/07/12 10:09:26;;;;;;;4.75;1.27;;;;;;;;;;5025699;28;20068;-76
2022/07/12 10:11:54;;;;;;;3.10;1.30;;;;;;;;;;5025317;28;20148;-75
2022/07/12 10:14:27;;;;;;;2.50;1.30;;;;;;;;;;5024162;28;20115;-75
2022/07/12 10:16:55;;;;;;;6.00;1.25;;;;;;;;;;5025777;28;20057;-75
2022/07/12 10:19:23;;;;;;;4.53;1.30;;;;;;;;;;5026105;28;20137;-76
2022/07/12 10:21:55;;;;;;;4.90;1.45;;;;;;;;;;5025667;28;20085;-75
2022/07/12 10:24:32;;;;;;;4.47;1.60;;;;;;;;;;5023501;28;20132;-75
2022/07/12 10:26:59;;;;;;;2.50;1.10;;;;;;;;;;5024336;28;20073;-75
2022/07/12 10:29:27;;;;;;;3.30;1.50;;;;;;;;;;5024911;28;20077;-76
2022/07/12 10:31:54;;;;;;;3.35;1.35;;;;;;;;;;5023758;28;20061;-76
2022/07/12 10:34:23;;;;;;;2.50;1.50;;;;;;;;;;5023893;28;20660;-75
2022/07/12 10:36:56;;;;;;;2.00;1.38;;;;;;;;;;5026084;28;20119;-76
2022/07/12 10:40:03;;;;;;;5.63;1.60;;;;;;;;;;5025704;28;20083;-75
2022/07/12 10:42:31;;;;;;;4.28;1.40;;;;;;;;;;5023964;28;20861;-76
2022/07/12 10:45:09;;;;;;;6.88;1.20;;;;;;;;;;5027502;28;20588;-76
2022/07/12 10:47:55;;;;;;;3.42;1.30;;;;;;;;;;5028971;28;20073;-75
2022/07/12 10:53:39;;;;;;;4.50;1.23;;;;;;;;;;5023231;28;20458;-75
2022/07/12 10:56:20;;;;;;;2.75;1.00;;;;;;;;;;5027688;28;20152;-75
2022/07/12 10:58:57;;;;;;;4.15;1.00;;;;;;;;;;5027395;28;20422;-75
2022/07/12 11:01:31;;;;;;;2.88;1.00;;;;;;;;;;5028563;28;20072;-75
2022/07/12 11:04:08;;;;;;;3.05;0.90;;;;;;;;;;5027991;28;20115;-75
2022/07/12 11:06:37;;;;;;;2.60;1.08;;;;;;;;;;5028690;28;20742;-75
2022/07/12 11:09:07;;;;;;;2.03;1.50;;;;;;;;;;5028961;28;20140;-76
2022/07/12 11:11:48;;;;;;;5.75;1.50;;;;;;;;;;5027736;28;20088;-75
2022/07/12 11:14:22;;;;;;;8.05;1.30;;;;;;;;;;5008334;28;20050;-75
2022/07/12 11:16:51;;;;;;;5.18;1.42;;;;;;;;;;5007898;28;20235;-75
2022/07/12 11:19:26;;;;;;;3.63;1.10;;;;;;;;;;5008144;28;20080;-75
2022/07/12 11:21:58;;;;;;;3.35;1.00;;;;;;;;;;5007406;28;20081;-75
2022/07/12 11:24:26;;;;;;;5.15;1.27;;;;;;;;;;5028606;28;20072;-75
2022/07/12 11:26:53;;;;;;;1.75;1.10;;;;;;;;;;5027481;28;20092;-75
2022/07/12 11:29:21;;;;;;;2.35;1.63;;;;;;;;;;5028211;28;20072;-75
2022/07/12 11:31:49;;;;;;;3.75;1.35;;;;;;;;;;5027625;28;20041;-75
2022/07/12 11:34:20;;;;;;;11.45;1.70;;;;;;;;;;5027897;28;20144;-74
2022/07/12 11:36:48;;;;;;;2.17;1.33;;;;;;;;;;5027860;28;20814;-74
2022/07/12 11:39:15;;;;;;;1.42;1.15;;;;;;;;;;5026212;28;20465;-75
2022/07/12 11:41:55;;;;;;;7.35;1.23;;;;;;;;;;5026891;28;20092;-75
2022/07/12 11:44:27;;;;;;;1.98;1.08;;;;;;;;;;5022507;28;20103;-75
2022/07/12 11:47:00;;;;;;;4.72;1.45;;;;;;;;;;5007063;28;20049;-75
2022/07/12 11:49:28;;;;;;;3.28;1.23;;;;;;;;;;5021625;28;20058;-76
2022/07/12 11:51:55;;;;;;;6.03;1.58;;;;;;;;;;5010221;28;20058;-75
2022/07/12 11:54:25;;;;;;;3.13;1.40;;;;;;;;;;5028105;28;20593;-75
2022/07/12 11:57:25;;;;;;;2.05;1.20;;;;;;;;;;5029426;28;20077;-75
2022/07/12 11:59:52;;;;;;;4.97;1.35;;;;;;;;;;5006991;28;20486;-75
2022/07/12 12:02:20;;;;;;;5.85;1.40;;;;;;;;;;5029095;28;20045;-75
2022/07/12 12:04:54;;;;;;;3.05;1.15;;;;;;;;;;5028980;28;20057;-75
2022/07/12 12:07:23;;;;;;;5.07;1.10;;;;;;;;;;5025968;28;20049;-76
2022/07/12 12:09:59;;;;;;;6.00;1.33;;;;;;;;;;5026555;28;20405;-75
2022/07/12 12:12:37;;;;;;;6.50;1.10;;;;;;;;;;5027613;28;20135;-75
2022/07/12 12:15:09;;;;;;;3.83;1.50;;;;;;;;;;5028627;28;20081;-75
2022/07/12 12:17:37;;;;;;;1.90;1.60;;;;;;;;;;5028840;28;20049;-75
2022/07/12 12:20:21;;;;;;;1.60;1.17;;;;;;;;;;5028100;28;20118;-76
2022/07/12 12:22:55;;;;;;;3.53;1.30;;;;;;;;;;5028016;28;20049;-75
2022/07/12 12:25:24;;;;;;;2.85;1.38;;;;;;;;;;5029088;28;20089;-75
2022/07/12 12:28:10;;;;;;;5.00;1.10;;;;;;;;;;5028804;28;20092;-75
2022/07/12 12:30:54;;;;;;;1.50;1.30;;;;;;;;;;5027812;28;20736;-75
2022/07/12 12:33:35;;;;;;;4.32;1.40;;;;;;;;;;5029035;28;20050;-75
2022/07/12 12:36:15;;;;;;;1.25;1.13;;;;;;;;;;5027871;28;20207;-75
2022/07/12 12:38:43;;;;;;;6.50;1.60;;;;;;;;;;5029127;28;20057;-75
2022/07/12 12:41:11;;;;;;;2.03;1.27;;;;;;;;;;5028565;28;20049;-75
2022/07/12 12:43:38;;;;;;;3.38;1.00;;;;;;;;;;5028982;28;20096;-76
2022/07/12 12:46:06;;;;;;;3.00;1.17;;;;;;;;;;5029508;28;20077;-75
2022/07/12 12:48:34;;;;;;;2.75;1.00;;;;;;;;;;5028516;28;20462;-76
2022/07/12 12:51:05;;;;;;;1.15;0.90;;;;;;;;;;5028778;28;20084;-75
2022/07/12 12:53:32;;;;;;;1.67;0.80;;;;;;;;;;5028939;28;20057;-75
2022/07/12 12:56:00;;;;;;;1.85;0.90;;;;;;;;;;5028598;28;20407;-75
2022/07/12 12:58:27;;;;;;;2.33;0.60;;;;;;;;;;5027690;28;20687;-76
2022/07/12 13:00:56;;;;;;;2.15;0.63;;;;;;;;;;5030134;28;20080;-75
2022/07/12 13:03:24;;;;;;;3.70;0.88;;;;;;;;;;5030008;28;20056;-76
2022/07/12 13:05:52;;;;;;;3.15;0.60;;;;;;;;;;5028990;28;20052;-76
2022/07/12 13:08:20;;;;;;;0.93;0.70;;;;;;;;;;5026586;28;20057;-76
2022/07/12 13:11:18;;;;;;;0.70;0.70;;;;;;;;;;5027048;28;20629;-76
2022/07/12 13:13:37;;;;;;;6.38;0.88;;;;;;;;;;5028694;28;20375;-76
2022/07/12 13:16:04;;;;;;;1.17;0.90;;;;;;;;;;5027863;28;20153;-76
2022/07/12 13:18:31;;;;;;;2.50;0.52;;;;;;;;;;5028612;28;20084;-76
2022/07/12 13:20:59;;;;;;;1.50;0.80;;;;;;;;;;5026789;28;20128;-76
2022/07/12 13:23:26;;;;;;;2.08;0.80;;;;;;;;;;5027503;28;20565;-76
2022/07/12 13:25:54;;;;;;;0.80;0.70;;;;;;;;;;5027142;28;20076;-76
2022/07/12 13:28:22;;;;;;;3.65;0.70;;;;;;;;;;5028352;28;20128;-76
2022/07/12 13:30:49;;;;;;;0.68;0.60;;;;;;;;;;5027808;28;20093;-76
2022/07/12 13:33:16;;;;;;;5.65;1.23;;;;;;;;;;5028507;28;20088;-76
2022/07/12 13:35:44;;;;;;;0.80;0.70;;;;;;;;;;5026123;28;20141;-76
2022/07/12 13:38:12;;;;;;;3.83;0.57;;;;;;;;;;5027992;28;20456;-76
2022/07/12 13:40:40;;;;;;;2.08;0.70;;;;;;;;;;5027252;28;20085;-76
2022/07/12 13:43:07;;;;;;;3.03;0.93;;;;;;;;;;5028318;28;20092;-76
2022/07/12 13:45:34;;;;;;;3.83;0.70;;;;;;;;;;5028215;28;20148;-76
2022/07/12 13:48:02;;;;;;;0.82;0.60;;;;;;;;;;5028603;28;20046;-76
2022/07/12 13:50:30;;;;;;;1.38;0.60;;;;;;;;;;5028238;28;20493;-75
2022/07/12 13:52:59;;;;;;;1.10;0.60;;;;;;;;;;5027236;28;20107;-76
2022/07/12 13:55:27;;;;;;;1.95;0.60;;;;;;;;;;5027566;28;20079;-76
2022/07/12 13:57:55;;;;;;;0.60;0.60;;;;;;;;;;5027913;28;20469;-76
2022/07/12 14:00:22;;;;;;;0.88;0.80;;;;;;;;;;5025358;28;20049;-76
2022/07/12 14:02:50;;;;;;;3.55;0.82;;;;;;;;;;5025692;28;20128;-76
2022/07/12 14:05:21;;;;;;;0.50;0.45;;;;;;;;;;5026349;28;20164;-76
2022/07/12 14:07:49;;;;;;;3.60;0.75;;;;;;;;;;5026141;28;20133;-76
2022/07/12 14:10:16;;;;;;;5.13;0.52;;;;;;;;;;5027173;28;20087;-76
2022/07/12 14:12:43;;;;;;;1.02;0.47;;;;;;;;;;5026702;28;20057;-76
2022/07/12 14:17:44;;;;;;;2.25;0.77;;;;;;;;;;5026307;28;20045;-76
2022/07/12 14:20:12;;;;;;;3.22;0.93;;;;;;;;;;5025253;28;20536;-76
2022/07/12 14:22:40;;;;;;;0.73;0.60;;;;;;;;;;5026789;28;20525;-76
2022/07/12 14:25:08;;;;;;;1.15;0.60;;;;;;;;;;5025895;28;20806;-76
2022/07/12 14:27:36;;;;;;;1.63;0.60;;;;;;;;;;5027154;28;20480;-76
2022/07/12 14:30:04;;;;;;;1.15;0.68;;;;;;;;;;5027383;28;20088;-76
2022/07/12 14:32:31;;;;;;;1.58;0.80;;;;;;;;;;5027562;28;20162;-76
2022/07/12 14:34:59;;;;;;;1.92;0.60;;;;;;;;;;5027605;28;20096;-76
2022/07/12 14:37:26;;;;;;;2.15;0.55;;;;;;;;;;5026220;28;20136;-76
2022/07/12 14:39:53;;;;;;;0.65;0.65;;;;;;;;;;5025585;28;20081;-76
2022/07/12 14:42:21;;;;;;;3.25;0.55;;;;;;;;;;5024015;28;20605;-76
2022/07/12 14:44:48;;;;;;;3.20;0.80;;;;;;;;;;5022737;28;20111;-76
2022/07/12 14:47:20;;;;;;;1.85;1.15;;;;;;;;;;5025121;28;20601;-76
2022/07/12 14:49:48;;;;;;;1.00;0.73;;;;;;;;;;5026123;28;20474;-76
2022/07/12 14:52:16;;;;;;;0.52;0.52;;;;;;;;;;5025911;28;20450;-76
2022/07/12 14:54:44;;;;;;;1.95;0.50;;;;;;;;;;5027102;28;20049;-76
2022/07/12 14:57:11;;;;;;;1.20;0.70;;;;;;;;;;5028020;28;20449;-76
2022/07/12 14:59:39;;;;;;;1.63;0.60;;;;;;;;;;5026099;28;20092;-77
2022/07/12 15:02:06;;;;;;;1.75;0.70;;;;;;;;;;5025881;28;20122;-76
2022/07/12 15:04:34;;;;;;;0.70;0.65;;;;;;;;;;5025416;28;20107;-77
2022/07/12 15:07:01;;;;;;;0.80;0.70;;;;;;;;;;5026479;28;20542;-76
2022/07/12 15:09:29;;;;;;;1.13;0.80;;;;;;;;;;5026221;28;20062;-76